Time;durP1;ratioP1;P1;durP2;ratioP2;P2;SDS_P1;SDS_P2;PMS_P1;PMS_P2;Temp;Humidity;BMP_temperature;BMP_pressure;BME280_temperature;BME280_humidity;BME280_pressure;Samples;Min_cycle;Max_cycle;Signal;HPM_P1;HPM_P2
2024/01/06 00:00:09;;;;;;;0.30;0.30;;;3.50;99.90;;;;;;5044034;28;20481;-76
2024/01/06 00:02:38;;;;;;;0.40;0.40;;;3.50;99.90;;;;;;5030437;28;20401;-76
2024/01/06 00:05:05;;;;;;;1.77;1.13;;;3.40;99.90;;;;;;5048186;28;20045;-75
2024/01/06 00:07:32;;;;;;;0.38;0.38;;;3.40;99.90;;;;;;5060822;28;20031;-75
2024/01/06 00:09:59;;;;;;;0.47;0.47;;;3.50;99.90;;;;;;5025730;28;20064;-75
2024/01/06 00:12:25;;;;;;;0.40;0.40;;;3.40;99.90;;;;;;5059825;28;20036;-79
2024/01/06 00:14:51;;;;;;;0.20;0.20;;;3.40;99.90;;;;;;5033347;28;20041;-76
2024/01/06 00:17:17;;;;;;;3.13;2.28;;;3.50;99.90;;;;;;5033911;28;20044;-77
2024/01/06 00:19:44;;;;;;;0.10;0.10;;;3.60;99.90;;;;;;5046264;28;20481;-76
2024/01/06 00:22:10;;;;;;;1.17;0.65;;;3.60;99.90;;;;;;5026859;28;20048;-76
2024/01/06 00:24:37;;;;;;;0.20;0.20;;;3.60;99.90;;;;;;5052116;28;20037;-76
2024/01/06 00:27:03;;;;;;;0.75;0.75;;;3.60;99.90;;;;;;5027239;28;20048;-76
2024/01/06 00:29:29;;;;;;;1.45;1.10;;;3.60;99.90;;;;;;5038873;28;20052;-76
2024/01/06 00:31:56;;;;;;;0.52;0.52;;;3.60;99.90;;;;;;5042189;28;20044;-76
2024/01/06 00:34:22;;;;;;;0.77;0.77;;;3.60;99.90;;;;;;5041130;28;20028;-77
2024/01/06 00:36:48;;;;;;;0.38;0.38;;;3.50;99.90;;;;;;5071508;28;20454;-77
2024/01/06 00:39:15;;;;;;;0.55;0.40;;;3.40;99.90;;;;;;5066943;28;20465;-77
2024/01/06 00:41:41;;;;;;;0.25;0.25;;;3.30;99.90;;;;;;5047923;28;20037;-76
2024/01/06 00:44:07;;;;;;;0.38;0.38;;;3.20;99.90;;;;;;5049936;28;20395;-76
2024/01/06 00:46:33;;;;;;;4.18;0.55;;;3.10;99.90;;;;;;5067999;28;20044;-77
2024/01/06 00:49:00;;;;;;;1.77;1.67;;;3.00;99.90;;;;;;5070306;28;20461;-76
2024/01/06 00:51:27;;;;;;;0.10;0.10;;;3.00;99.90;;;;;;5079177;28;20077;-78
2024/01/06 00:53:54;;;;;;;0.10;0.10;;;2.90;99.90;;;;;;5064961;28;20028;-76
2024/01/06 00:56:20;;;;;;;0.75;0.75;;;2.90;99.90;;;;;;5048887;28;20047;-76
2024/01/06 00:58:46;;;;;;;0.20;0.20;;;2.80;99.90;;;;;;5075105;28;20032;-76
2024/01/06 01:01:12;;;;;;;0.90;0.85;;;2.80;99.90;;;;;;5062934;28;20496;-76
2024/01/06 01:03:39;;;;;;;3.30;1.65;;;2.70;99.90;;;;;;5062342;28;20033;-76
2024/01/06 01:06:06;;;;;;;0.22;0.22;;;2.70;99.90;;;;;;5046878;28;20036;-75
2024/01/06 01:08:32;;;;;;;0.20;0.20;;;2.70;99.90;;;;;;5077190;28;20036;-76
2024/01/06 01:10:58;;;;;;;0.20;0.20;;;2.60;99.90;;;;;;5063467;28;20051;-76
2024/01/06 01:13:25;;;;;;;1.48;0.65;;;2.50;99.90;;;;;;5043064;28;20790;-79
2024/01/06 01:15:53;;;;;;;0.45;0.45;;;2.50;1.00;;;;;;5047513;28;20051;-77
2024/01/06 01:18:19;;;;;;;0.93;0.50;;;2.50;1.00;;;;;;5069758;28;20044;-77
2024/01/06 01:20:45;;;;;;;0.35;0.35;;;2.50;1.00;;;;;;5066865;28;20036;-76
2024/01/06 01:23:12;;;;;;;0.30;0.30;;;2.50;1.00;;;;;;5055336;28;20033;-74
2024/01/06 01:25:38;;;;;;;0.08;0.08;;;2.50;1.00;;;;;;5043921;28;20047;-77
2024/01/06 01:28:05;;;;;;;0.50;0.50;;;2.50;1.00;;;;;;5078858;28;20033;-78
2024/01/06 01:30:32;;;;;;;1.05;0.57;;;2.50;1.00;;;;;;5066614;28;20032;-77
2024/01/06 01:32:58;;;;;;;0.30;0.30;;;2.70;1.00;;;;;;5061991;28;20481;-77
2024/01/06 01:35:25;;;;;;;1.10;0.65;;;3.40;1.00;;;;;;5063841;28;20032;-80
2024/01/06 01:37:51;;;;;;;0.20;0.20;;;3.80;1.00;;;;;;5047803;28;20041;-76
2024/01/06 01:40:18;;;;;;;0.55;0.55;;;4.20;99.90;;;;;;5046117;28;20047;-77
2024/01/06 01:42:44;;;;;;;0.10;0.10;;;4.30;99.90;;;;;;5062327;28;20284;-77
2024/01/06 01:45:10;;;;;;;1.17;0.47;;;4.50;99.90;;;;;;5045213;28;20051;-77
2024/01/06 01:47:39;;;;;;;0.57;0.45;;;4.50;99.90;;;;;;5064586;28;20062;-77
2024/01/06 01:50:08;;;;;;;0.10;0.10;;;4.60;99.90;;;;;;5062466;28;20055;-77
2024/01/06 01:52:36;;;;;;;0.90;0.90;;;4.60;99.90;;;;;;5049562;28;20488;-78
2024/01/06 01:55:03;;;;;;;0.10;0.10;;;4.70;99.90;;;;;;5048288;28;20045;-77
2024/01/06 01:57:29;;;;;;;0.20;0.20;;;4.80;99.90;;;;;;5067779;28;20043;-77
2024/01/06 01:59:56;;;;;;;0.47;0.47;;;4.80;99.90;;;;;;5047638;28;20047;-77
2024/01/06 02:02:23;;;;;;;0.22;0.22;;;4.80;99.90;;;;;;5062138;28;20047;-78
2024/01/06 02:04:49;;;;;;;0.10;0.10;;;4.80;99.90;;;;;;5047005;28;20052;-77
2024/01/06 02:07:16;;;;;;;0.52;0.52;;;4.90;90.30;;;;;;5048244;28;20691;-76
2024/01/06 02:09:42;;;;;;;0.10;0.10;;;5.00;73.70;;;;;;5065945;28;20043;-77
2024/01/06 02:12:09;;;;;;;0.55;0.55;;;5.00;48.90;;;;;;5059853;28;20044;-77
2024/01/06 02:14:35;;;;;;;1.45;1.33;;;5.00;38.00;;;;;;5058489;28;20045;-77
2024/01/06 02:17:02;;;;;;;0.65;0.65;;;4.90;50.50;;;;;;5060862;28;20032;-77
2024/01/06 02:19:28;;;;;;;2.20;1.00;;;4.90;70.50;;;;;;5060391;28;20051;-77
2024/01/06 02:21:54;;;;;;;3.03;2.30;;;4.80;84.50;;;;;;5065316;28;20028;-77
2024/01/06 02:24:21;;;;;;;2.17;1.33;;;4.80;96.00;;;;;;5048853;28;20044;-77
2024/01/06 02:26:47;;;;;;;0.20;0.20;;;4.80;96.90;;;;;;5063435;28;20043;-77
2024/01/06 02:29:14;;;;;;;0.55;0.55;;;4.60;99.90;;;;;;5077795;28;20035;-77
2024/01/06 02:31:40;;;;;;;2.20;1.88;;;4.60;99.90;;;;;;5078182;28;20036;-77
2024/01/06 02:34:06;;;;;;;4.28;3.17;;;4.60;99.90;;;;;;5042927;28;20041;-77
2024/01/06 02:36:32;;;;;;;3.45;1.98;;;4.60;99.90;;;;;;5059364;28;20052;-77
2024/01/06 02:38:59;;;;;;;7.43;3.20;;;4.50;99.90;;;;;;5066622;28;20045;-77
2024/01/06 02:41:25;;;;;;;0.93;0.77;;;4.50;99.90;;;;;;5068291;28;20028;-80
2024/01/06 02:43:52;;;;;;;1.55;1.45;;;4.50;99.90;;;;;;5063487;28;20032;-77
2024/01/06 02:46:18;;;;;;;0.77;0.77;;;4.50;99.90;;;;;;5070442;28;20051;-77
2024/01/06 02:48:44;;;;;;;0.22;0.22;;;4.50;99.90;;;;;;5061754;28;20032;-76
2024/01/06 02:51:12;;;;;;;0.38;0.38;;;4.50;99.90;;;;;;5081207;28;20020;-77
2024/01/06 02:53:39;;;;;;;0.10;0.10;;;4.60;99.90;;;;;;5081004;28;20032;-77
2024/01/06 02:56:10;;;;;;;0.28;0.28;;;4.80;99.90;;;;;;5059368;28;20032;-77
2024/01/06 02:58:37;;;;;;;0.20;0.20;;;4.80;99.90;;;;;;5066601;28;20032;-77
2024/01/06 03:01:03;;;;;;;0.20;0.20;;;5.00;89.60;;;;;;5081931;28;20032;-76
2024/01/06 03:03:29;;;;;;;0.40;0.40;;;5.00;63.60;;;;;;5061300;28;20028;-77
2024/01/06 03:05:56;;;;;;;0.70;0.57;;;5.00;53.40;;;;;;5064104;28;20044;-77
2024/01/06 03:08:23;;;;;;;0.20;0.20;;;5.00;56.30;;;;;;5070945;28;20040;-76
2024/01/06 03:10:49;;;;;;;0.50;0.50;;;5.00;63.70;;;;;;5071442;28;20043;-77
2024/01/06 03:13:15;;;;;;;0.30;0.30;;;4.90;80.80;;;;;;5055052;28;20051;-77
2024/01/06 03:15:42;;;;;;;0.10;0.10;;;4.90;82.70;;;;;;5046219;28;20051;-77
2024/01/06 03:18:08;;;;;;;0.13;0.13;;;4.90;94.40;;;;;;5078955;28;20036;-77
2024/01/06 03:20:35;;;;;;;0.28;0.28;;;4.90;94.70;;;;;;5046051;28;20040;-77
2024/01/06 03:23:01;;;;;;;0.15;0.15;;;4.90;86.20;;;;;;5049041;28;20054;-76
2024/01/06 03:25:27;;;;;;;0.10;0.10;;;4.90;85.20;;;;;;5079530;28;20028;-80
2024/01/06 03:27:54;;;;;;;0.45;0.45;;;4.90;89.60;;;;;;5051991;28;20044;-77
2024/01/06 03:30:20;;;;;;;0.50;0.50;;;4.90;86.40;;;;;;5069858;28;20357;-76
2024/01/06 03:32:46;;;;;;;0.20;0.20;;;4.90;87.80;;;;;;5068538;28;20036;-77
2024/01/06 03:35:12;;;;;;;1.08;0.88;;;4.90;88.40;;;;;;5068673;28;20056;-77
2024/01/06 03:37:39;;;;;;;0.50;0.50;;;4.90;66.60;;;;;;5069461;28;20051;-77
2024/01/06 03:40:06;;;;;;;0.43;0.43;;;4.90;65.20;;;;;;5064898;28;20396;-77
2024/01/06 03:42:32;;;;;;;0.10;0.10;;;4.90;49.20;;;;;;5053230;28;20044;-76
2024/01/06 03:44:58;;;;;;;0.10;0.10;;;5.00;40.80;;;;;;5065698;28;20041;-76
2024/01/06 03:47:25;;;;;;;0.17;0.17;;;5.00;34.10;;;;;;5054000;28;20036;-80
2024/01/06 03:49:51;;;;;;;0.73;0.57;;;5.00;23.60;;;;;;5075894;28;20036;-77
2024/01/06 03:52:19;;;;;;;0.50;0.50;;;5.10;21.40;;;;;;5065806;28;20477;-77
2024/01/06 03:54:45;;;;;;;0.10;0.10;;;5.00;17.30;;;;;;5045852;28;20040;-79
2024/01/06 03:57:12;;;;;;;0.10;0.10;;;5.00;16.10;;;;;;5064502;28;20024;-77
2024/01/06 03:59:38;;;;;;;0.50;0.50;;;5.00;15.20;;;;;;5045039;28;20047;-77
2024/01/06 04:02:04;;;;;;;0.38;0.38;;;5.00;11.90;;;;;;5083910;28;20040;-76
2024/01/06 04:04:30;;;;;;;0.57;0.57;;;5.00;17.70;;;;;;5065232;28;20043;-77
2024/01/06 04:06:57;;;;;;;0.20;0.20;;;5.00;7.00;;;;;;5061757;28;20032;-77
2024/01/06 04:09:23;;;;;;;0.20;0.20;;;5.00;5.50;;;;;;5067940;28;20048;-77
2024/01/06 04:11:49;;;;;;;0.20;0.20;;;5.00;1.00;;;;;;5058717;28;20048;-77
2024/01/06 04:14:15;;;;;;;0.30;0.30;;;5.00;4.40;;;;;;5071494;28;20414;-76
2024/01/06 04:16:42;;;;;;;0.20;0.20;;;5.00;1.00;;;;;;5064725;28;20039;-77
2024/01/06 04:19:08;;;;;;;0.25;0.25;;;5.00;1.00;;;;;;5045239;28;20040;-78
2024/01/06 04:21:35;;;;;;;0.20;0.20;;;5.10;1.00;;;;;;5051275;28;20036;-77
2024/01/06 04:24:01;;;;;;;3.08;0.65;;;5.00;9.30;;;;;;5068574;28;20040;-77
2024/01/06 04:26:27;;;;;;;0.10;0.10;;;5.00;1.00;;;;;;5062446;28;20040;-80
2024/01/06 04:28:53;;;;;;;0.20;0.20;;;5.10;1.00;;;;;;5068843;28;20044;-77
2024/01/06 04:31:21;;;;;;;5.07;1.00;;;5.10;1.00;;;;;;5053970;28;20048;-78
2024/01/06 04:33:47;;;;;;;0.17;0.17;;;5.10;1.00;;;;;;5069525;28;20500;-78
2024/01/06 04:36:14;;;;;;;1.45;1.35;;;5.10;1.00;;;;;;5049075;28;20526;-77
2024/01/06 04:38:40;;;;;;;0.40;0.40;;;5.10;1.00;;;;;;5062902;28;20044;-77
2024/01/06 04:41:06;;;;;;;1.95;0.68;;;5.20;1.00;;;;;;5043407;28;20049;-77
2024/01/06 04:43:33;;;;;;;2.10;0.88;;;5.20;1.00;;;;;;5077374;28;20055;-77
2024/01/06 04:45:59;;;;;;;0.52;0.52;;;5.10;1.00;;;;;;5051111;28;20037;-77
2024/01/06 04:48:26;;;;;;;0.45;0.45;;;5.10;1.00;;;;;;5043907;28;20040;-77
2024/01/06 04:50:52;;;;;;;0.10;0.10;;;5.10;1.00;;;;;;5049327;28;20043;-76
2024/01/06 04:53:20;;;;;;;0.10;0.10;;;5.10;1.00;;;;;;5051165;28;20055;-76
2024/01/06 04:55:47;;;;;;;0.52;0.52;;;5.10;1.00;;;;;;5050562;28;20137;-76
2024/01/06 04:58:14;;;;;;;0.30;0.30;;;5.10;1.00;;;;;;5045782;28;20036;-76
2024/01/06 05:00:40;;;;;;;0.20;0.20;;;5.10;1.00;;;;;;5068129;28;20044;-76
2024/01/06 05:03:06;;;;;;;0.45;0.30;;;5.10;1.00;;;;;;5081893;28;20039;-76
2024/01/06 05:05:33;;;;;;;0.57;0.55;;;5.10;1.00;;;;;;5066264;28;20842;-76
2024/01/06 05:08:00;;;;;;;0.20;0.10;;;5.10;1.00;;;;;;5065342;28;20036;-76
2024/01/06 05:10:26;;;;;;;0.40;0.40;;;5.00;1.00;;;;;;5063706;28;20052;-76
2024/01/06 05:12:52;;;;;;;2.60;0.70;;;5.10;1.00;;;;;;5042845;28;20406;-77
2024/01/06 05:15:19;;;;;;;0.20;0.20;;;5.00;1.00;;;;;;5080282;28;20035;-77
2024/01/06 05:17:45;;;;;;;0.68;0.63;;;5.10;1.00;;;;;;5059752;28;20039;-76
2024/01/06 05:20:12;;;;;;;0.35;0.35;;;5.10;1.20;;;;;;5066868;28;20044;-75
2024/01/06 05:22:38;;;;;;;1.15;0.75;;;5.00;5.10;;;;;;5051650;28;20473;-76
2024/01/06 05:25:05;;;;;;;0.55;0.55;;;5.10;9.50;;;;;;5052802;28;20059;-76
2024/01/06 05:27:31;;;;;;;0.93;0.85;;;5.10;4.10;;;;;;5051306;28;20041;-76
2024/01/06 05:29:58;;;;;;;0.85;0.85;;;5.10;4.30;;;;;;5050968;28;20048;-77
2024/01/06 05:32:24;;;;;;;2.05;1.55;;;5.10;6.10;;;;;;5060658;28;20055;-77
2024/01/06 05:34:51;;;;;;;0.25;0.25;;;5.10;10.80;;;;;;5060912;28;20037;-76
2024/01/06 05:37:17;;;;;;;0.65;0.65;;;5.00;10.10;;;;;;5045429;28;20040;-77
2024/01/06 05:39:44;;;;;;;0.20;0.20;;;5.10;6.90;;;;;;5053202;28;20051;-76
2024/01/06 05:42:12;;;;;;;0.63;0.63;;;5.10;11.70;;;;;;5065557;28;20040;-76
2024/01/06 05:44:38;;;;;;;0.50;0.50;;;5.10;13.00;;;;;;5060048;28;20028;-76
2024/01/06 05:47:05;;;;;;;0.52;0.52;;;5.00;15.20;;;;;;5050448;28;20040;-76
2024/01/06 05:49:31;;;;;;;0.40;0.40;;;5.10;14.30;;;;;;5062864;28;20044;-76
2024/01/06 05:51:58;;;;;;;0.10;0.10;;;5.10;29.20;;;;;;5079557;28;20039;-76
2024/01/06 05:54:24;;;;;;;0.68;0.63;;;5.10;40.00;;;;;;5078948;28;20032;-77
2024/01/06 05:56:50;;;;;;;1.42;1.33;;;5.00;28.10;;;;;;5074497;28;20035;-76
2024/01/06 05:59:16;;;;;;;1.27;1.27;;;5.00;31.50;;;;;;5066805;28;20046;-75
2024/01/06 06:01:43;;;;;;;3.08;1.13;;;5.00;28.40;;;;;;5057935;28;20055;-75
2024/01/06 06:04:11;;;;;;;1.42;1.33;;;5.10;26.90;;;;;;5062703;28;20021;-75
2024/01/06 06:06:37;;;;;;;2.13;1.60;;;5.10;39.80;;;;;;5076790;28;20028;-76
2024/01/06 06:09:06;;;;;;;9.82;2.75;;;5.10;51.50;;;;;;5058293;28;20493;-75
2024/01/06 06:11:33;;;;;;;23.00;7.95;;;5.00;62.80;;;;;;5070236;28;20277;-76
2024/01/06 06:14:02;;;;;;;6.80;3.67;;;5.10;67.70;;;;;;5064367;28;20059;-76
2024/01/06 06:16:29;;;;;;;8.57;4.53;;;5.10;90.10;;;;;;5079812;28;20020;-78
2024/01/06 06:18:56;;;;;;;10.90;4.20;;;5.00;96.60;;;;;;5053300;28;20043;-75
2024/01/06 06:21:22;;;;;;;5.88;2.60;;;5.00;98.10;;;;;;5082665;28;20035;-75
2024/01/06 06:23:48;;;;;;;2.60;2.40;;;5.00;99.90;;;;;;5069835;28;20037;-76
2024/01/06 06:26:14;;;;;;;5.88;3.83;;;5.00;99.90;;;;;;5041538;28;20851;-76
2024/01/06 06:28:41;;;;;;;3.65;3.10;;;5.10;99.90;;;;;;5072877;28;20028;-76
2024/01/06 06:31:07;;;;;;;11.88;3.33;;;5.10;98.30;;;;;;5058165;28;20051;-76
2024/01/06 06:33:34;;;;;;;0.90;0.85;;;5.00;92.40;;;;;;5047579;28;20465;-76
2024/01/06 06:36:01;;;;;;;1.15;1.13;;;5.00;92.20;;;;;;5064904;28;20366;-75
2024/01/06 06:38:27;;;;;;;3.35;1.73;;;5.10;98.50;;;;;;5049846;28;20032;-77
2024/01/06 06:40:54;;;;;;;11.70;0.85;;;5.10;99.90;;;;;;5039038;28;20053;-76
2024/01/06 06:43:20;;;;;;;1.25;0.57;;;5.10;99.90;;;;;;5053261;28;20045;-76
2024/01/06 06:45:46;;;;;;;1.75;1.65;;;5.10;99.90;;;;;;5048535;28;20039;-76
2024/01/06 06:48:12;;;;;;;1.17;1.10;;;5.10;99.90;;;;;;5053534;28;20044;-76
2024/01/06 06:50:40;;;;;;;0.40;0.35;;;5.00;99.90;;;;;;5045920;28;20041;-76
2024/01/06 06:53:08;;;;;;;0.40;0.40;;;5.10;99.90;;;;;;5065261;28;20037;-76
2024/01/06 06:55:34;;;;;;;0.30;0.30;;;5.00;99.90;;;;;;5034941;28;20401;-76
2024/01/06 06:58:00;;;;;;;3.17;2.88;;;5.00;99.90;;;;;;5055121;28;20048;-75
2024/01/06 07:00:27;;;;;;;0.32;0.32;;;5.00;99.90;;;;;;5038919;28;20281;-75
2024/01/06 07:02:53;;;;;;;1.17;1.08;;;5.00;99.90;;;;;;5071566;28;20393;-77
2024/01/06 07:05:19;;;;;;;4.38;3.25;;;5.00;99.90;;;;;;5066261;28;20433;-76
2024/01/06 07:07:46;;;;;;;2.10;2.00;;;5.00;99.90;;;;;;5051141;28;20044;-78
2024/01/06 07:10:13;;;;;;;0.98;0.93;;;5.00;99.90;;;;;;5066860;28;20033;-76
2024/01/06 07:12:40;;;;;;;0.88;0.82;;;5.00;99.90;;;;;;5026468;28;20048;-76
2024/01/06 07:15:08;;;;;;;0.40;0.40;;;5.00;99.90;;;;;;5068374;28;20029;-77
2024/01/06 07:17:35;;;;;;;0.40;0.40;;;5.00;99.90;;;;;;5046155;28;20044;-78
2024/01/06 07:20:01;;;;;;;0.10;0.10;;;5.00;99.90;;;;;;5047548;28;20048;-76
2024/01/06 07:22:28;;;;;;;0.28;0.28;;;5.00;99.90;;;;;;5052528;28;20040;-76
2024/01/06 07:24:54;;;;;;;0.30;0.30;;;5.00;99.90;;;;;;5048931;28;20040;-76
2024/01/06 07:27:20;;;;;;;0.63;0.63;;;5.00;99.90;;;;;;5051588;28;20047;-76
2024/01/06 07:29:47;;;;;;;0.30;0.30;;;5.00;99.90;;;;;;5055540;28;20041;-77
2024/01/06 07:32:13;;;;;;;0.52;0.52;;;5.00;99.90;;;;;;5050565;28;20500;-77
2024/01/06 07:34:40;;;;;;;0.77;0.52;;;5.00;99.90;;;;;;5066457;28;20048;-78
2024/01/06 07:37:07;;;;;;;0.10;0.10;;;5.00;99.90;;;;;;5065623;28;20063;-77
2024/01/06 07:39:33;;;;;;;1.23;1.13;;;5.00;99.90;;;;;;5081243;28;20040;-77
2024/01/06 07:41:59;;;;;;;0.10;0.10;;;5.00;99.90;;;;;;5069593;28;20043;-76
2024/01/06 07:44:25;;;;;;;0.25;0.25;;;5.00;99.90;;;;;;5072842;28;20043;-77
2024/01/06 07:46:53;;;;;;;0.47;0.47;;;5.00;99.90;;;;;;5068780;28;20036;-77
2024/01/06 07:49:19;;;;;;;0.10;0.10;;;5.00;99.90;;;;;;5049931;28;20048;-78
2024/01/06 07:51:46;;;;;;;0.80;0.80;;;5.00;99.90;;;;;;5065779;28;20036;-77
2024/01/06 07:54:12;;;;;;;0.40;0.40;;;5.00;99.90;;;;;;5053715;28;20477;-75
2024/01/06 07:56:39;;;;;;;0.25;0.25;;;5.00;99.90;;;;;;5064177;28;20058;-75
2024/01/06 07:59:05;;;;;;;0.95;0.95;;;5.10;99.90;;;;;;5082369;28;20470;-74
2024/01/06 08:01:32;;;;;;;0.20;0.20;;;5.10;99.90;;;;;;5078393;28;20047;-80
2024/01/06 08:03:59;;;;;;;1.95;1.23;;;5.10;99.90;;;;;;5065219;28;20043;-76
2024/01/06 08:06:26;;;;;;;0.43;0.40;;;5.10;99.90;;;;;;5045854;28;20055;-77
2024/01/06 08:08:52;;;;;;;0.13;0.13;;;5.10;99.90;;;;;;5080008;28;20055;-78
2024/01/06 08:11:18;;;;;;;5.28;1.85;;;5.10;99.90;;;;;;5079137;28;20044;-77
2024/01/06 08:13:44;;;;;;;0.15;0.15;;;5.10;99.90;;;;;;5068176;28;20062;-76
2024/01/06 08:16:11;;;;;;;0.28;0.28;;;5.10;99.90;;;;;;5044145;28;20063;-76
2024/01/06 08:18:37;;;;;;;0.52;0.52;;;5.10;99.90;;;;;;5063692;28;20048;-78
2024/01/06 08:21:04;;;;;;;0.28;0.28;;;5.10;99.90;;;;;;5049013;28;20040;-76
2024/01/06 08:23:30;;;;;;;0.43;0.43;;;5.10;99.90;;;;;;5063433;28;20044;-80
2024/01/06 08:25:57;;;;;;;0.60;0.60;;;5.20;99.90;;;;;;5064980;28;20059;-77
2024/01/06 08:28:23;;;;;;;0.20;0.20;;;5.10;99.90;;;;;;5061304;28;20059;-75
2024/01/06 08:30:50;;;;;;;0.40;0.40;;;5.20;99.90;;;;;;5083767;28;20039;-74
2024/01/06 08:33:17;;;;;;;0.35;0.35;;;5.20;99.90;;;;;;5064090;28;20040;-75
2024/01/06 08:35:45;;;;;;;0.10;0.10;;;5.20;99.90;;;;;;5058647;28;20060;-77
2024/01/06 08:38:11;;;;;;;0.30;0.30;;;5.20;99.90;;;;;;5078940;28;20036;-74
2024/01/06 08:40:37;;;;;;;0.70;0.70;;;5.30;99.90;;;;;;5049993;28;20045;-74
2024/01/06 08:43:04;;;;;;;0.73;0.73;;;5.20;99.90;;;;;;5067152;28;20051;-78
2024/01/06 08:45:30;;;;;;;0.95;0.95;;;5.20;99.90;;;;;;5071313;28;20043;-78
2024/01/06 08:47:57;;;;;;;1.60;1.50;;;5.30;99.90;;;;;;5048488;28;20055;-76
2024/01/06 08:50:23;;;;;;;2.28;2.13;;;5.30;99.90;;;;;;5082909;28;20035;-75
2024/01/06 08:52:49;;;;;;;1.65;1.55;;;5.30;99.90;;;;;;5070475;28;20044;-75
2024/01/06 08:55:16;;;;;;;2.05;1.73;;;5.30;99.90;;;;;;5066266;28;20044;-74
2024/01/06 08:57:42;;;;;;;2.60;1.88;;;5.30;99.90;;;;;;5083697;28;20028;-75
2024/01/06 09:00:10;;;;;;;13.02;4.20;;;5.30;99.90;;;;;;5063893;28;20040;-75
2024/01/06 09:02:36;;;;;;;3.55;3.35;;;5.30;99.90;;;;;;5081835;28;20036;-78
2024/01/06 09:05:04;;;;;;;3.63;3.33;;;5.30;99.90;;;;;;5049080;28;20051;-77
2024/01/06 09:07:30;;;;;;;0.52;0.52;;;5.30;99.90;;;;;;5075944;28;20036;-77
2024/01/06 09:09:56;;;;;;;1.13;1.13;;;5.30;99.90;;;;;;5085573;28;20384;-84
2024/01/06 09:12:23;;;;;;;0.50;0.50;;;5.30;99.90;;;;;;5066566;28;20043;-76
2024/01/06 09:14:49;;;;;;;0.50;0.50;;;5.30;99.90;;;;;;5062979;28;20421;-76
2024/01/06 09:17:16;;;;;;;0.35;0.35;;;5.30;99.90;;;;;;5078406;28;20042;-77
2024/01/06 09:19:42;;;;;;;0.57;0.57;;;5.30;99.90;;;;;;5079920;28;20032;-76
2024/01/06 09:22:08;;;;;;;5.72;1.38;;;5.30;99.90;;;;;;5076820;28;20041;-75
2024/01/06 09:24:34;;;;;;;1.20;1.08;;;5.30;99.90;;;;;;5077597;28;20035;-77
2024/01/06 09:27:00;;;;;;;2.10;1.67;;;5.30;99.90;;;;;;5077941;28;20051;-76
2024/01/06 09:29:27;;;;;;;1.05;0.95;;;5.40;99.90;;;;;;5062410;28;20040;-76
2024/01/06 09:31:53;;;;;;;1.67;0.75;;;5.30;99.90;;;;;;5057726;28;20477;-76
2024/01/06 09:34:20;;;;;;;0.55;0.55;;;5.40;99.90;;;;;;5077962;28;20040;-77
2024/01/06 09:36:46;;;;;;;0.20;0.20;;;5.40;99.90;;;;;;5049863;28;20051;-76
2024/01/06 09:39:12;;;;;;;0.52;0.47;;;5.40;99.90;;;;;;5079637;28;20461;-76
2024/01/06 09:41:39;;;;;;;0.30;0.30;;;5.50;99.90;;;;;;5077467;28;20029;-76
2024/01/06 09:44:06;;;;;;;0.68;0.68;;;5.50;99.90;;;;;;5060637;28;20024;-77
2024/01/06 09:46:32;;;;;;;0.77;0.77;;;5.50;99.90;;;;;;5082985;28;20024;-78
2024/01/06 09:48:58;;;;;;;2.38;1.27;;;5.50;99.90;;;;;;5076718;28;20029;-76
2024/01/06 09:51:28;;;;;;;1.42;1.05;;;5.60;99.90;;;;;;5058473;28;20044;-76
2024/01/06 09:54:00;;;;;;;0.50;0.50;;;5.50;99.90;;;;;;5076748;28;20051;-77
2024/01/06 09:56:28;;;;;;;0.88;0.88;;;5.60;99.90;;;;;;5078739;28;20384;-77
2024/01/06 09:58:57;;;;;;;0.73;0.73;;;5.60;99.90;;;;;;5060337;28;20063;-77
2024/01/06 10:01:24;;;;;;;1.95;1.08;;;5.50;99.90;;;;;;5069552;28;20040;-77
2024/01/06 10:03:50;;;;;;;2.38;1.10;;;5.50;99.90;;;;;;5050599;28;20044;-77
2024/01/06 10:06:18;;;;;;;0.85;0.65;;;5.60;99.90;;;;;;5076634;28;20036;-77
2024/01/06 10:08:51;;;;;;;5.57;1.67;;;5.60;99.90;;;;;;5077979;28;20040;-75
2024/01/06 10:11:22;;;;;;;0.40;0.40;;;5.70;99.90;;;;;;5048350;28;20064;-75
2024/01/06 10:13:52;;;;;;;;;;;5.80;99.90;;;;;;5069268;28;20037;-75
2024/01/06 10:16:19;;;;;;;1.00;0.85;;;6.00;99.90;;;;;;5067324;28;19908;-75
2024/01/06 10:18:45;;;;;;;0.50;0.50;;;6.10;99.90;;;;;;5073249;28;20035;-75
2024/01/06 10:21:13;;;;;;;0.35;0.35;;;6.20;99.90;;;;;;5077605;28;20407;-76
2024/01/06 10:23:41;;;;;;;3.88;2.10;;;6.30;99.90;;;;;;5063583;28;20032;-76
2024/01/06 10:26:07;;;;;;;0.75;0.75;;;6.30;99.90;;;;;;5059466;28;20037;-76
2024/01/06 10:28:33;;;;;;;1.85;1.55;;;6.30;99.90;;;;;;5068906;28;20047;-77
2024/01/06 10:31:01;;;;;;;0.85;0.85;;;6.30;99.90;;;;;;5061554;28;20393;-76
2024/01/06 10:33:27;;;;;;;3.30;1.05;;;6.30;99.90;;;;;;5077857;28;20504;-74
2024/01/06 10:35:56;;;;;;;1.90;1.80;;;6.30;99.90;;;;;;5062903;28;20059;-75
2024/01/06 10:38:22;;;;;;;0.73;0.73;;;6.40;99.90;;;;;;5079017;28;20055;-76
2024/01/06 10:41:07;;;;;;;0.88;0.82;;;6.50;99.90;;;;;;5077899;28;20029;-76
2024/01/06 10:43:43;;;;;;;1.63;1.52;;;6.50;99.90;;;;;;5083260;28;20062;-76
2024/01/06 10:46:10;;;;;;;1.65;1.52;;;6.60;99.90;;;;;;5077706;28;20033;-76
2024/01/06 10:48:42;;;;;;;2.55;1.75;;;6.70;99.90;;;;;;5079244;28;20036;-75
2024/01/06 10:51:13;;;;;;;1.10;1.00;;;6.70;99.90;;;;;;5064282;28;20037;-75
2024/01/06 10:53:43;;;;;;;;;;;6.70;99.90;;;;;;5057015;28;20076;-74
2024/01/06 10:56:12;;;;;;;2.40;1.20;;;6.70;99.90;;;;;;5065005;28;19935;-75
2024/01/06 10:58:51;;;;;;;0.50;0.50;;;6.70;99.90;;;;;;5081610;28;20044;-75
2024/01/06 11:01:24;;;;;;;0.98;0.85;;;6.70;99.90;;;;;;5069998;28;20044;-75
2024/01/06 11:03:50;;;;;;;0.50;0.50;;;6.70;99.90;;;;;;5082997;28;20487;-75
2024/01/06 11:06:18;;;;;;;2.38;0.93;;;6.70;99.90;;;;;;5045353;28;20047;-74
2024/01/06 11:09:14;;;;;;;1.52;0.45;;;6.70;99.90;;;;;;5063223;28;20032;-75
2024/01/06 11:11:41;;;;;;;0.98;0.98;;;6.70;99.90;;;;;;5069481;28;20489;-75
2024/01/06 11:14:27;;;;;;;3.50;1.23;;;6.70;99.90;;;;;;5063896;28;20395;-75
2024/01/06 11:16:55;;;;;;;2.05;1.02;;;6.70;99.90;;;;;;5078327;28;20024;-74
2024/01/06 11:19:42;;;;;;;1.95;1.65;;;6.70;99.90;;;;;;5067186;28;20047;-73
2024/01/06 11:22:36;;;;;;;1.13;1.02;;;6.60;99.90;;;;;;5081657;28;20036;-73
2024/01/06 11:25:07;;;;;;;0.82;0.82;;;6.60;99.90;;;;;;5083199;28;20831;-75
2024/01/06 11:27:35;;;;;;;0.55;0.55;;;6.70;99.90;;;;;;5082019;28;20032;-74
2024/01/06 11:30:06;;;;;;;0.65;0.65;;;6.70;99.90;;;;;;5073268;28;20052;-75
2024/01/06 11:32:41;;;;;;;0.70;0.70;;;6.70;99.90;;;;;;5079530;28;20037;-73
2024/01/06 11:35:12;;;;;;;1.75;0.82;;;6.70;99.90;;;;;;5080743;28;20035;-75
2024/01/06 11:37:41;;;;;;;1.65;1.00;;;6.70;99.90;;;;;;5079236;28;20053;-75
2024/01/06 11:40:23;;;;;;;1.23;1.13;;;6.70;99.90;;;;;;5080317;28;20047;-75
2024/01/06 11:43:07;;;;;;;4.85;2.40;;;6.70;99.90;;;;;;5083012;28;20500;-74
2024/01/06 11:45:35;;;;;;;0.70;0.70;;;6.60;99.90;;;;;;5078955;28;20055;-75
2024/01/06 11:48:10;;;;;;;1.52;0.93;;;6.50;99.90;;;;;;5080374;28;20032;-74
2024/01/06 11:50:38;;;;;;;1.40;0.95;;;6.50;99.90;;;;;;5058709;28;20050;-75
2024/01/06 11:53:05;;;;;;;0.93;0.93;;;6.60;99.90;;;;;;5080279;28;20048;-75
2024/01/06 11:55:32;;;;;;;3.10;1.55;;;6.60;99.90;;;;;;5080668;28;20020;-75
2024/01/06 11:58:02;;;;;;;3.35;2.35;;;6.60;99.90;;;;;;5087202;28;20028;-75
2024/01/06 12:00:29;;;;;;;0.57;0.57;;;6.60;99.90;;;;;;5079685;28;20032;-74
2024/01/06 12:02:57;;;;;;;5.07;1.95;;;6.60;99.90;;;;;;5079049;28;20036;-75
2024/01/06 12:05:24;;;;;;;1.38;1.30;;;6.60;99.90;;;;;;5082783;28;20381;-75
2024/01/06 12:07:56;;;;;;;1.63;1.13;;;6.60;99.90;;;;;;5079368;28;20024;-75
2024/01/06 12:10:23;;;;;;;0.80;0.80;;;6.50;99.90;;;;;;5075554;28;20041;-74
2024/01/06 12:13:03;;;;;;;1.20;0.60;;;6.50;99.90;;;;;;5076345;28;20295;-76
2024/01/06 12:15:31;;;;;;;2.75;1.65;;;6.50;99.90;;;;;;5077784;28;20035;-75
2024/01/06 12:17:58;;;;;;;5.35;1.77;;;6.40;99.90;;;;;;5080742;28;20039;-76
2024/01/06 12:20:26;;;;;;;0.85;0.85;;;6.50;99.90;;;;;;5082615;28;20466;-76
2024/01/06 12:22:53;;;;;;;0.20;0.20;;;6.40;99.90;;;;;;5077736;28;20122;-77
2024/01/06 12:25:25;;;;;;;1.55;1.27;;;6.40;99.90;;;;;;5068958;28;20044;-77
2024/01/06 12:27:53;;;;;;;0.15;0.15;;;6.40;99.90;;;;;;5073671;28;20032;-76
2024/01/06 12:30:22;;;;;;;1.05;1.05;;;6.40;99.90;;;;;;5063187;28;20507;-77
2024/01/06 12:32:51;;;;;;;2.80;0.77;;;6.40;99.90;;;;;;5077254;28;20044;-76
2024/01/06 12:35:19;;;;;;;0.20;0.20;;;6.40;99.90;;;;;;5078538;28;20035;-76
2024/01/06 12:37:45;;;;;;;1.38;1.02;;;6.40;99.90;;;;;;5076712;28;20048;-76
2024/01/06 12:40:13;;;;;;;1.55;0.90;;;6.40;99.90;;;;;;5065850;28;20415;-76
2024/01/06 12:42:39;;;;;;;0.68;0.68;;;6.30;99.90;;;;;;5081906;28;20043;-76
2024/01/06 12:45:06;;;;;;;1.33;1.23;;;6.40;99.90;;;;;;5077490;28;20464;-76
2024/01/06 12:47:33;;;;;;;0.60;0.60;;;6.40;99.90;;;;;;5077259;28;20024;-77
2024/01/06 12:50:00;;;;;;;0.77;0.77;;;6.40;99.90;;;;;;5080656;28;20476;-75
2024/01/06 12:52:26;;;;;;;9.10;4.95;;;6.40;99.90;;;;;;5080376;28;20396;-76
2024/01/06 12:54:52;;;;;;;2.05;1.95;;;6.40;99.90;;;;;;5077852;28;20036;-74
2024/01/06 12:57:18;;;;;;;1.23;1.13;;;6.40;99.90;;;;;;5077380;28;20043;-75